createdAt,value
2022-12-27T00:02:16.716Z,101259.28
2022-12-27T00:06:22.027Z,101271.19
2022-12-27T00:10:25.108Z,101283.16
2022-12-27T00:14:30.566Z,101284.66
2022-12-27T00:18:33.995Z,101286.03
2022-12-27T00:22:37.156Z,101291.75
2022-12-27T00:26:41.064Z,101293.78
2022-12-27T00:30:45.461Z,101291.06
2022-12-27T00:34:48.840Z,101296.31
2022-12-27T00:38:53.085Z,101284.66
2022-12-27T00:42:56.227Z,101284.81
2022-12-27T00:47:00.978Z,101287.44
2022-12-27T00:51:06.613Z,101298.28
2022-12-27T00:55:11.071Z,101298.28
2022-12-27T00:59:14.225Z,101297.09
2022-12-27T01:03:20.126Z,101319.72
2022-12-27T01:07:23.195Z,101316.72
2022-12-27T01:11:28.484Z,101315.84
2022-12-27T01:15:31.816Z,101326.53
2022-12-27T01:19:38.199Z,101323.13
2022-12-27T01:23:42.466Z,101331.00
2022-12-27T01:27:45.495Z,101336.13
2022-12-27T01:31:50.090Z,101342.41
2022-12-27T01:35:55.151Z,101348.16
2022-12-27T01:39:58.375Z,101349.88
2022-12-27T01:44:01.608Z,101362.66
2022-12-27T01:48:08.437Z,101360.09
2022-12-27T01:52:14.525Z,101369.13
2022-12-27T01:56:22.634Z,101384.03
2022-12-27T02:00:26.551Z,101375.22
2022-12-27T02:04:33.300Z,101383.75
2022-12-27T02:08:44.989Z,101378.91
2022-12-27T02:12:48.193Z,101375.50
2022-12-27T02:16:51.962Z,101384.63
2022-12-27T02:21:28.909Z,101381.94
2022-12-27T02:25:51.079Z,101394.88
2022-12-27T02:30:01.051Z,101388.88
2022-12-27T02:34:09.874Z,101386.34
2022-12-27T02:38:20.565Z,101381.72
2022-12-27T02:42:41.671Z,101397.69
2022-12-27T02:47:04.881Z,101402.78
2022-12-27T02:51:42.775Z,101397.50
2022-12-27T02:56:19.497Z,101407.09
2022-12-27T03:00:42.659Z,101398.78
2022-12-27T03:05:06.427Z,101403.94
2022-12-27T03:09:34.705Z,101406.81
2022-12-27T03:14:01.569Z,101401.69
2022-12-27T03:18:10.431Z,101402.78
2022-12-27T03:22:34.527Z,101401.38
2022-12-27T03:26:40.875Z,101404.53
2022-12-27T03:31:04.851Z,101412.53
2022-12-27T03:35:14.968Z,101407.09
2022-12-27T03:39:26.478Z,101418.34
2022-12-27T03:43:29.958Z,101421.19
2022-12-27T03:47:40.262Z,101412.75
2022-12-27T03:51:48.693Z,101416.94
2022-12-27T03:55:53.810Z,101415.97
2022-12-27T03:59:57.100Z,101418.03
2022-12-27T04:04:00.617Z,101431.38
2022-12-27T04:08:21.278Z,101422.94
2022-12-27T04:12:43.287Z,101421.34
2022-12-27T04:17:03.846Z,101426.06
2022-12-27T04:21:24.375Z,101414.03
2022-12-27T04:25:45.115Z,101408.72
2022-12-27T04:30:07.620Z,101401.41
2022-12-27T04:34:29.429Z,101412.63
2022-12-27T04:38:32.744Z,101419.03
2022-12-27T04:42:53.442Z,101417.16
2022-12-27T04:47:15.577Z,101414.66
2022-12-27T04:51:36.218Z,101408.84
2022-12-27T04:55:39.277Z,101423.88
2022-12-27T05:00:00.135Z,101424.50
2022-12-27T05:04:05.639Z,101421.97
2022-12-27T05:08:26.679Z,101434.41
2022-12-27T05:12:47.707Z,101432.06
2022-12-27T05:16:50.745Z,101430.66
2022-12-27T05:20:55.268Z,101447.00
2022-12-27T05:25:16.103Z,101450.59
2022-12-27T05:29:19.264Z,101448.88
2022-12-27T05:33:22.388Z,101452.59
2022-12-27T05:37:26.917Z,101458.31
2022-12-27T05:41:29.996Z,101458.44
2022-12-27T05:45:34.332Z,101470.00
2022-12-27T05:49:37.540Z,101465.81
2022-12-27T05:53:42.279Z,101463.88
2022-12-27T05:57:45.355Z,101472.69
2022-12-27T06:01:49.607Z,101471.00
2022-12-27T06:05:52.945Z,101494.38
2022-12-27T06:09:57.393Z,101488.41
2022-12-27T06:14:01.515Z,101500.31
2022-12-27T06:18:06.700Z,101506.56
2022-12-27T06:22:10.368Z,101503.44
2022-12-27T06:26:17.623Z,101522.81
2022-12-27T06:30:20.959Z,101510.75
2022-12-27T06:34:24.153Z,101502.31
2022-12-27T06:38:27.247Z,101506.44
2022-12-27T06:42:32.148Z,101506.03
2022-12-27T06:46:35.363Z,101513.00
2022-12-27T06:50:38.501Z,101513.16
2022-12-27T06:54:43.265Z,101523.00
2022-12-27T06:58:49.383Z,101524.16
2022-12-27T07:02:52.669Z,101518.34
2022-12-27T07:06:55.822Z,101527.16
2022-12-27T07:11:01.333Z,101529.47
2022-12-27T07:15:06.838Z,101542.59
2022-12-27T07:19:11.177Z,101542.88
2022-12-27T07:23:19.223Z,101544.72
2022-12-27T07:27:22.576Z,101553.41
2022-12-27T07:31:29.797Z,101553.69
2022-12-27T07:35:32.999Z,101572.09
2022-12-27T07:39:36.083Z,101561.81
2022-12-27T07:43:39.642Z,101567.09
2022-12-27T07:47:44.098Z,101570.22
2022-12-27T07:51:47.224Z,101568.34
2022-12-27T07:55:51.091Z,101567.03
2022-12-27T07:59:54.472Z,101573.56
2022-12-27T08:03:58.887Z,101581.78
2022-12-27T08:08:02.634Z,101584.66
2022-12-27T08:12:08.296Z,101571.31
2022-12-27T08:16:17.319Z,101560.56
2022-12-27T08:20:21.842Z,101578.31
2022-12-27T08:24:25.157Z,101573.19
2022-12-27T08:28:31.520Z,101569.78
2022-12-27T08:32:34.635Z,101590.91
2022-12-27T08:36:55.090Z,101585.63
2022-12-27T08:40:58.879Z,101590.44
2022-12-27T08:45:01.922Z,101585.59
2022-12-27T08:49:06.074Z,101600.81
2022-12-27T08:53:11.533Z,101598.22
2022-12-27T08:57:14.725Z,101603.75
2022-12-27T09:01:18.955Z,101602.34
2022-12-27T09:05:22.918Z,101589.03
2022-12-27T09:09:27.371Z,101581.91
2022-12-27T09:13:30.725Z,101579.81
2022-12-27T09:17:34.329Z,101571.59
2022-12-27T09:21:41.110Z,101561.34
2022-12-27T09:25:45.909Z,101566.50
2022-12-27T09:29:48.943Z,101559.94
2022-12-27T09:33:52.626Z,101557.22
2022-12-27T09:37:55.838Z,101563.19
2022-12-27T09:42:47.659Z,101561.81
2022-12-27T09:46:42.535Z,101576.81
2022-12-27T09:50:51.737Z,101562.69
2022-12-27T09:55:05.177Z,101552.66
2022-12-27T09:59:21.323Z,101558.44
2022-12-27T10:03:28.126Z,101559.78
2022-12-27T10:07:42.651Z,101542.41
2022-12-27T10:11:55.917Z,101547.97
2022-12-27T10:16:12.714Z,101530.16
2022-12-27T10:20:24.375Z,101526.28
2022-12-27T10:24:35.391Z,101527.59
2022-12-27T10:28:40.981Z,101537.28
2022-12-27T10:32:45.818Z,101545.69
2022-12-27T10:36:49.224Z,101531.72
2022-12-27T10:40:58.770Z,101538.00
2022-12-27T10:45:28.049Z,101544.84
2022-12-27T10:49:34.328Z,101551.28
2022-12-27T10:53:40.643Z,101532.69
2022-12-27T10:57:43.913Z,101533.75
2022-12-27T11:01:50.086Z,101533.06
2022-12-27T11:06:06.369Z,101528.97
2022-12-27T11:10:17.198Z,101523.31
2022-12-27T11:14:22.010Z,101531.50
2022-12-27T11:18:25.132Z,101547.50
2022-12-27T11:22:30.013Z,101541.22
2022-12-27T11:26:40.669Z,101539.38
2022-12-27T11:30:53.853Z,101546.19
2022-12-27T11:34:57.966Z,101545.84
2022-12-27T11:39:03.128Z,101544.34
2022-12-27T11:43:12.279Z,101549.03
2022-12-27T11:47:28.287Z,101553.00
2022-12-27T11:52:02.637Z,101553.00
2022-12-27T11:56:24.898Z,101551.28
2022-12-27T12:00:36.704Z,101556.75
2022-12-27T12:05:13.006Z,101542.63
2022-12-27T12:09:27.487Z,101541.41
2022-12-27T12:14:08.424Z,101549.25
2022-12-27T12:18:34.126Z,101531.53
2022-12-27T12:22:55.977Z,101530.03
2022-12-27T12:27:15.853Z,101515.88
2022-12-27T12:31:34.354Z,101517.22
2022-12-27T12:35:50.019Z,101513.47
2022-12-27T12:40:14.524Z,101514.00
2022-12-27T12:44:39.541Z,101505.16
2022-12-27T12:49:21.179Z,101490.50
2022-12-27T12:53:38.909Z,101491.34
2022-12-27T12:57:53.706Z,101488.47
2022-12-27T13:02:21.637Z,101485.19
2022-12-27T13:06:56.354Z,101478.75
2022-12-27T13:11:21.908Z,101486.91
2022-12-27T13:15:39.739Z,101477.72
2022-12-27T13:20:02.228Z,101469.91
2022-12-27T13:24:23.760Z,101480.50
2022-12-27T13:28:40.220Z,101479.47
2022-12-27T13:33:02.774Z,101470.63
2022-12-27T13:37:17.183Z,101464.50
2022-12-27T13:41:37.227Z,101461.75
2022-12-27T13:45:52.943Z,101442.66
2022-12-27T13:50:12.894Z,101429.72
2022-12-27T13:54:49.816Z,101415.59
2022-12-27T13:59:32.101Z,101409.94
2022-12-27T14:03:55.133Z,101406.53
2022-12-27T14:08:09.674Z,101401.41
2022-12-27T14:12:43.787Z,101406.53
2022-12-27T14:17:05.935Z,101387.78
2022-12-27T14:21:31.635Z,101385.06
2022-12-27T14:26:00.568Z,101390.69
2022-12-27T14:30:24.292Z,101384.56
2022-12-27T14:35:00.156Z,101387.09
2022-12-27T14:39:32.093Z,101374.50
2022-12-27T14:44:02.760Z,101376.03
2022-12-27T14:48:59.437Z,101372.09
2022-12-27T14:53:42.463Z,101367.69
2022-12-27T14:57:56.935Z,101374.81
2022-12-27T15:02:19.567Z,101380.81
2022-12-27T15:06:40.482Z,101377.41
2022-12-27T15:11:08.725Z,101377.53
2022-12-27T15:15:29.646Z,101373.41
2022-12-27T15:19:48.738Z,101364.09
2022-12-27T15:23:54.693Z,101360.38
2022-12-27T15:28:07.360Z,101355.53
2022-12-27T15:32:25.355Z,101359.28
2022-12-27T15:36:40.286Z,101346.00
2022-12-27T15:41:19.736Z,101344.47
2022-12-27T15:45:38.176Z,101344.81
2022-12-27T15:50:13.635Z,101351.47
2022-12-27T15:54:28.730Z,101351.63
2022-12-27T15:58:32.484Z,101345.03
2022-12-27T16:02:39.192Z,101347.88
2022-12-27T16:06:52.542Z,101342.09
2022-12-27T16:10:57.315Z,101338.91
2022-12-27T16:15:34.279Z,101332.09
2022-12-27T16:19:55.084Z,101332.78
2022-12-27T16:24:07.137Z,101324.97
2022-12-27T16:28:23.941Z,101335.16
2022-12-27T16:32:28.559Z,101328.69
2022-12-27T16:36:35.295Z,101334.16
2022-12-27T16:40:48.391Z,101331.78
2022-12-27T16:45:02.953Z,101326.66
2022-12-27T16:49:32.713Z,101335.84
2022-12-27T16:54:04.369Z,101338.91
2022-12-27T16:58:36.395Z,101336.38
2022-12-27T17:02:42.031Z,101334.69
2022-12-27T17:06:57.337Z,101335.03
2022-12-27T17:11:25.191Z,101321.56
2022-12-27T17:15:30.645Z,101313.75
2022-12-27T17:19:38.503Z,101299.47
2022-12-27T17:23:44.394Z,101296.59
2022-12-27T17:27:59.926Z,101296.41
2022-12-27T17:32:12.288Z,101294.75
2022-12-27T17:36:29.888Z,101291.00
2022-12-27T17:40:42.486Z,101287.25
2022-12-27T17:45:10.280Z,101289.44
2022-12-27T17:49:16.289Z,101287.59
2022-12-27T17:53:40.157Z,101286.91
2022-12-27T17:57:55.446Z,101287.94
2022-12-27T18:02:04.881Z,101288.94
2022-12-27T18:06:10.218Z,101289.97
2022-12-27T18:10:20.178Z,101283.50
2022-12-27T18:14:23.385Z,101287.91
2022-12-27T18:18:29.634Z,101283.81
2022-12-27T18:22:34.079Z,101278.38
2022-12-27T18:26:39.480Z,101270.88
2022-12-27T18:30:47.789Z,101258.16
2022-12-27T18:34:55.496Z,101265.09
2022-12-27T18:39:03.542Z,101256.78
2022-12-27T18:43:15.488Z,101262.38
2022-12-27T18:47:21.523Z,101253.88
2022-12-27T18:51:31.909Z,101255.03
2022-12-27T18:55:38.019Z,101230.94
2022-12-27T18:59:41.454Z,101244.34
2022-12-27T19:03:44.674Z,101240.78
2022-12-27T19:07:49.152Z,101235.50
2022-12-27T19:11:56.406Z,101239.84
2022-12-27T19:16:00.301Z,101221.88
2022-12-27T19:20:06.761Z,101217.41
2022-12-27T19:24:36.910Z,101210.63
2022-12-27T19:28:41.552Z,101195.00
2022-12-27T19:32:44.632Z,101185.31
2022-12-27T19:36:49.421Z,101186.66
2022-12-27T19:41:01.315Z,101187.50
2022-12-27T19:45:08.627Z,101176.34
2022-12-27T19:53:38.699Z,101170.19
2022-12-27T19:57:41.791Z,101168.50
2022-12-27T20:01:46.621Z,101165.78
2022-12-27T20:06:14.531Z,101155.94
2022-12-27T20:10:16.355Z,101149.69
2022-12-27T20:14:19.565Z,101136.97
2022-12-27T20:18:24.898Z,101131.88
2022-12-27T20:22:28.475Z,101128.50
2022-12-27T20:26:32.960Z,101120.66
2022-12-27T20:30:38.931Z,101110.66
2022-12-27T20:34:43.394Z,101104.56
2022-12-27T20:38:46.637Z,101086.75
2022-12-27T20:42:50.247Z,101090.81
2022-12-27T20:46:53.615Z,101097.63
2022-12-27T20:50:58.069Z,101088.44
2022-12-27T20:55:01.160Z,101088.59
2022-12-27T20:59:04.672Z,101087.25
2022-12-27T21:03:07.881Z,101081.31
2022-12-27T21:07:12.695Z,101088.44
2022-12-27T21:11:17.321Z,101080.31
2022-12-27T21:15:20.463Z,101073.19
2022-12-27T21:19:23.560Z,101059.59
2022-12-27T21:23:28.018Z,101059.41
2022-12-27T21:27:31.131Z,101052.81
2022-12-27T21:31:34.920Z,101041.94
2022-12-27T21:35:38.243Z,101047.19
2022-12-27T21:39:43.611Z,101043.66
2022-12-27T21:43:48.950Z,101045.50
2022-12-27T21:47:52.587Z,101037.22
2022-12-27T21:51:55.849Z,101024.81
2022-12-27T21:56:00.347Z,101018.22
2022-12-27T22:00:03.447Z,101021.44
2022-12-27T22:04:08.209Z,101016.50
2022-12-27T22:08:11.368Z,101018.84
2022-12-27T22:12:16.321Z,101001.38
2022-12-27T22:16:21.615Z,100999.84
2022-12-27T22:20:24.777Z,100985.91
2022-12-27T22:24:27.856Z,100984.06
2022-12-27T22:28:33.061Z,100956.69
2022-12-27T22:32:36.171Z,100945.28
2022-12-27T22:36:39.359Z,100946.09
2022-12-27T22:40:46.530Z,100959.22
2022-12-27T22:44:51.384Z,100938.44
2022-12-27T22:48:56.041Z,100928.03
2022-12-27T22:52:59.272Z,100916.06
2022-12-27T22:57:02.739Z,100905.88
2022-12-27T23:01:13.765Z,100901.75
2022-12-27T23:05:17.057Z,100899.81
2022-12-27T23:09:20.135Z,100901.34
2022-12-27T23:13:24.936Z,100883.00
2022-12-27T23:17:29.475Z,100877.47
2022-12-27T23:21:32.602Z,100867.81
2022-12-27T23:25:37.052Z,100869.59
2022-12-27T23:29:40.415Z,100862.97
2022-12-27T23:33:45.299Z,100850.84
2022-12-27T23:37:48.497Z,100837.75
2022-12-27T23:41:51.582Z,100843.97
2022-12-27T23:45:54.703Z,100845.94
2022-12-27T23:49:59.269Z,100842.03
2022-12-27T23:54:02.516Z,100837.31
2022-12-27T23:58:06.340Z,100835.94
